Airfield :
LOGIN :

Register | Disclaimer

   EN    FR    IT 

 










Legend :    VFR   Marginal VFR   IFR   Intensive IFR   Very Intensive IFR
Visi :
Ceiling :
>= 8 km
>= 3000ft
5 to 8 km
1000 to 3000 ft
1500m to 5 km
500 to 1000 ft
800 to 1500m
200 to 500 ft
< 800m
< 200 ft
Symbols :   Thunderstorms  Fog  Heavy snow  Heavy precipitations  Wind > 20 kt
SIGMETs :     Misc.  Thunderstorms  Icing  Turbulence  Mountain Waves  Volcanic Ashes






- Airport Elevation : 102 ft
- IATA code : EXT


EGTE - Exeter

CURRENT METAR :
  • 101020Z 18015KT 6000 -DZ SCT010 BKN015 11/10 Q1013

EXPIRED METARs :
  • 100950Z 17014KT 6000 -DZ FEW007 BKN010 10/09 Q1013
  • 100920Z 17015KT 8000 FEW009 BKN015 09/09 Q1014 REDZ
  • 100850Z 16017KT 8000 DZ FEW009 BKN015 10/10 Q1015
  • 100820Z 17018KT 8000 DZ FEW010 BKN015 10/09 Q1015

TAF TAF EGTE
Valid from the 10 at 09:00 until the 10 at 18:00 UTC


100806Z 1009/1018 17017KT 9999 FEW008 BKN020
BECMG 1009/1012 20020G30KT
TEMPO 1009/1015 6000 RA BKN008
PROB40
TEMPO 1009/1018 20025G40KT
PROB40
TEMPO 1015/1018 3000 +RA BKN004



MET'MAP, your aeronautical weather chart ! - Copyright ORBIFLY December 2007 - Disclaimer

ORBIFLY MET'MAP TEAM :

Programming & Development : Alexandra Zaïnal
Concept & original design : Baudouin d'Aumeries
Assistance for programming : Marc-Olivier Méhu
Technical & hardware support : Manuel Goepfert

Contact : metmap@orbifly.com




SOURCES & CREDITS :

   NOAA